Time;durP1;ratioP1;P1;durP2;ratioP2;P2;SDS_P1;SDS_P2;PMS_P1;PMS_P2;Temp;Humidity;BMP_temperature;BMP_pressure;BME280_temperature;BME280_humidity;BME280_pressure;Samples;Min_cycle;Max_cycle;Signal;HPM_P1;HPM_P2
2021/09/21 00:00:08;;;;;;;10.90;9.15;;;13.00;8.50;;;;;;5037951;28;20483;-72
2021/09/21 00:02:36;;;;;;;10.60;8.95;;;13.00;9.00;;;;;;5050074;28;20569;-71
2021/09/21 00:05:08;;;;;;;12.65;9.15;;;13.10;8.80;;;;;;5034270;28;20050;-71
2021/09/21 00:07:36;;;;;;;10.27;8.85;;;13.10;7.50;;;;;;5040533;28;20049;-71
2021/09/21 00:10:06;;;;;;;11.38;8.50;;;13.10;8.20;;;;;;5032397;28;20049;-71
2021/09/21 00:12:34;;;;;;;13.40;8.82;;;13.10;7.80;;;;;;5036091;28;20107;-71
2021/09/21 00:15:04;;;;;;;9.70;8.65;;;13.10;7.70;;;;;;5032121;28;20930;-71
2021/09/21 00:17:33;;;;;;;10.90;8.73;;;13.00;8.00;;;;;;5035813;28;20057;-71
2021/09/21 00:20:01;;;;;;;13.10;8.98;;;13.00;8.10;;;;;;5030405;28;20061;-70
2021/09/21 00:22:30;;;;;;;10.07;8.57;;;12.90;8.60;;;;;;5033285;28;20056;-71
2021/09/21 00:24:58;;;;;;;14.57;9.73;;;12.90;8.70;;;;;;5033950;28;20084;-70
2021/09/21 00:27:26;;;;;;;10.00;8.57;;;12.90;8.60;;;;;;5034848;28;20102;-70
2021/09/21 00:29:54;;;;;;;11.35;9.45;;;12.90;8.80;;;;;;5028613;28;20064;-70
2021/09/21 00:32:26;;;;;;;9.25;8.15;;;12.90;9.00;;;;;;5033543;28;20182;-72
2021/09/21 00:34:55;;;;;;;11.23;9.23;;;12.90;8.70;;;;;;5032163;28;20049;-71
2021/09/21 00:37:23;;;;;;;12.80;9.32;;;12.80;8.80;;;;;;5028597;28;20090;-71
2021/09/21 00:39:51;;;;;;;11.40;8.65;;;12.80;9.20;;;;;;5032480;28;20182;-71
2021/09/21 00:42:25;;;;;;;10.98;8.98;;;12.80;8.60;;;;;;5033633;28;20088;-71
2021/09/21 00:44:58;;;;;;;11.67;9.13;;;12.80;9.30;;;;;;5035079;28;20563;-71
2021/09/21 00:47:27;;;;;;;10.68;9.23;;;12.80;9.30;;;;;;5036420;28;20103;-71
2021/09/21 00:49:56;;;;;;;10.48;9.27;;;12.80;9.70;;;;;;5029268;28;20653;-71
2021/09/21 00:52:25;;;;;;;12.57;9.38;;;12.80;9.30;;;;;;5032469;28;20048;-71
2021/09/21 00:54:53;;;;;;;11.27;8.63;;;12.80;9.70;;;;;;5037067;28;20053;-72
2021/09/21 00:57:22;;;;;;;11.75;8.70;;;12.80;9.70;;;;;;5035427;28;20528;-72
2021/09/21 00:59:51;;;;;;;11.40;9.20;;;12.80;9.70;;;;;;5030170;28;20075;-70
2021/09/21 01:02:20;;;;;;;11.27;8.63;;;12.80;9.70;;;;;;5037379;28;20140;-71
2021/09/21 01:04:49;;;;;;;12.73;9.52;;;12.70;9.60;;;;;;5040287;28;20110;-71
2021/09/21 01:07:18;;;;;;;10.77;9.15;;;12.80;9.80;;;;;;5036071;28;20496;-71
2021/09/21 01:09:46;;;;;;;10.40;8.65;;;12.80;9.70;;;;;;5036531;28;20045;-71
2021/09/21 01:12:14;;;;;;;10.40;9.02;;;12.80;9.70;;;;;;5038794;28;20492;-71
2021/09/21 01:14:44;;;;;;;9.38;8.30;;;12.80;9.70;;;;;;5034933;28;20042;-71
2021/09/21 01:17:12;;;;;;;12.30;9.35;;;12.80;9.90;;;;;;5046253;28;20037;-71
2021/09/21 01:19:40;;;;;;;11.13;9.23;;;12.70;9.60;;;;;;5046334;28;20060;-71
2021/09/21 01:22:09;;;;;;;11.10;8.82;;;12.70;9.60;;;;;;5030621;28;20524;-71
2021/09/21 01:24:37;;;;;;;11.20;8.88;;;12.70;9.70;;;;;;5056349;28;20048;-71
2021/09/21 01:27:05;;;;;;;13.00;8.98;;;12.70;9.60;;;;;;5056872;28;20040;-71
2021/09/21 01:29:33;;;;;;;10.30;9.00;;;12.60;10.20;;;;;;5054295;28;20144;-70
2021/09/21 01:32:02;;;;;;;10.48;8.80;;;12.60;9.50;;;;;;5059594;28;20160;-70
2021/09/21 01:34:30;;;;;;;11.80;8.98;;;12.60;9.50;;;;;;5052261;28;20099;-71
2021/09/21 01:36:57;;;;;;;12.63;9.18;;;12.60;9.50;;;;;;5059947;28;20079;-71
2021/09/21 01:39:27;;;;;;;11.88;8.85;;;12.60;9.00;;;;;;5051623;28;20052;-71
2021/09/21 01:41:55;;;;;;;12.93;9.73;;;12.60;9.20;;;;;;5056178;28;20048;-71
2021/09/21 01:44:23;;;;;;;10.18;9.07;;;12.50;9.50;;;;;;5058431;28;20044;-71
2021/09/21 01:46:52;;;;;;;14.35;9.15;;;12.50;9.50;;;;;;5054116;28;20166;-71
2021/09/21 01:49:24;;;;;;;11.05;8.95;;;12.50;9.50;;;;;;5052984;28;20050;-71
2021/09/21 01:52:00;;;;;;;10.13;8.73;;;12.50;10.00;;;;;;5057019;28;20061;-71
2021/09/21 01:54:43;;;;;;;10.77;8.68;;;12.40;9.90;;;;;;5053552;28;20044;-71
2021/09/21 02:00:07;;;;;;;10.05;8.60;;;12.40;10.60;;;;;;5000356;28;20103;-71
2021/09/21 02:02:35;;;;;;;10.98;8.68;;;12.40;11.10;;;;;;5022390;28;20049;-71
2021/09/21 02:05:05;;;;;;;11.48;8.90;;;12.40;11.20;;;;;;5033752;28;20068;-71
2021/09/21 02:07:32;;;;;;;12.07;9.02;;;12.40;11.60;;;;;;5041905;28;20045;-71
2021/09/21 02:10:05;;;;;;;10.88;9.25;;;12.40;11.80;;;;;;5036415;28;20052;-71
2021/09/21 02:12:36;;;;;;;11.18;9.45;;;12.40;11.20;;;;;;5055120;28;20480;-71
2021/09/21 02:15:07;;;;;;;11.65;8.77;;;12.40;10.50;;;;;;5041857;28;20385;-72
2021/09/21 02:17:35;;;;;;;11.45;9.50;;;12.40;10.90;;;;;;5042871;28;20048;-71
2021/09/21 02:20:04;;;;;;;11.07;8.88;;;12.30;11.20;;;;;;5052382;28;20045;-71
2021/09/21 02:22:32;;;;;;;10.50;8.93;;;12.30;11.40;;;;;;5056822;28;20048;-72
2021/09/21 02:25:04;;;;;;;15.30;9.32;;;12.30;11.40;;;;;;5039341;28;20055;-72
2021/09/21 02:27:35;;;;;;;10.63;8.90;;;12.20;11.30;;;;;;5026463;28;20131;-72
2021/09/21 02:30:04;;;;;;;12.70;9.15;;;12.20;11.20;;;;;;5017098;28;20495;-72
2021/09/21 02:32:32;;;;;;;11.15;9.32;;;12.20;10.60;;;;;;5054178;28;20460;-71
2021/09/21 02:35:05;;;;;;;12.90;9.07;;;12.20;10.60;;;;;;5036583;28;20053;-72
2021/09/21 02:37:33;;;;;;;10.20;8.77;;;12.20;9.30;;;;;;5018484;28;20060;-72
2021/09/21 02:40:03;;;;;;;11.43;9.02;;;12.10;10.20;;;;;;5049734;28;20136;-72
2021/09/21 02:42:34;;;;;;;9.75;8.75;;;12.10;10.40;;;;;;5058263;28;20055;-72
2021/09/21 02:45:04;;;;;;;11.10;8.73;;;12.20;9.90;;;;;;5035583;28;20044;-71
2021/09/21 02:47:32;;;;;;;10.85;8.77;;;12.10;10.60;;;;;;5054620;28;20102;-71
2021/09/21 02:50:00;;;;;;;11.68;9.55;;;12.00;10.60;;;;;;5052390;28;20465;-71
2021/09/21 02:52:28;;;;;;;11.13;8.82;;;12.10;10.30;;;;;;5049944;28;20044;-71
2021/09/21 02:54:56;;;;;;;11.30;8.63;;;12.00;11.40;;;;;;5053986;28;20052;-71
2021/09/21 02:57:26;;;;;;;13.23;9.05;;;12.00;10.90;;;;;;5057774;28;20047;-71
2021/09/21 02:59:54;;;;;;;12.45;9.25;;;12.00;10.70;;;;;;5049890;28;20040;-72
2021/09/21 03:02:23;;;;;;;11.80;9.82;;;12.00;10.70;;;;;;5056809;28;20460;-70
2021/09/21 03:04:57;;;;;;;13.95;9.48;;;12.00;11.00;;;;;;5055094;28;20052;-72
2021/09/21 03:07:32;;;;;;;10.98;9.10;;;12.00;11.20;;;;;;5037141;28;20127;-73
2021/09/21 03:10:13;;;;;;;10.60;9.07;;;11.90;11.30;;;;;;5053435;28;20277;-71
2021/09/21 03:13:12;;;;;;;10.70;8.95;;;11.90;11.10;;;;;;5055423;28;20048;-70
2021/09/21 03:18:27;;;;;;;12.32;9.70;;;11.90;10.70;;;;;;5043530;28;20037;-70
2021/09/21 03:20:55;;;;;;;10.90;9.73;;;11.80;11.20;;;;;;5057475;28;20098;-70
2021/09/21 03:23:24;;;;;;;13.07;9.45;;;11.70;11.20;;;;;;5053367;28;20315;-71
2021/09/21 03:25:52;;;;;;;12.02;8.60;;;11.70;11.80;;;;;;5059339;28;20041;-71
2021/09/21 03:28:22;;;;;;;10.68;8.65;;;11.60;11.60;;;;;;5061364;28;20052;-71
2021/09/21 03:30:50;;;;;;;12.48;9.15;;;11.70;11.80;;;;;;5055984;28;20044;-71
2021/09/21 03:33:18;;;;;;;10.35;9.18;;;11.70;12.00;;;;;;5063182;28;20055;-71
2021/09/21 03:35:46;;;;;;;11.15;9.15;;;11.70;12.50;;;;;;5059195;28;20052;-70
2021/09/21 03:38:17;;;;;;;12.98;8.63;;;11.70;11.80;;;;;;5058408;28;20107;-70
2021/09/21 03:40:47;;;;;;;11.43;9.07;;;11.70;12.10;;;;;;5047170;28;20064;-71
2021/09/21 03:43:17;;;;;;;11.38;9.40;;;11.70;12.20;;;;;;5040155;28;20105;-71
2021/09/21 03:45:47;;;;;;;11.68;9.90;;;11.70;11.90;;;;;;5040013;28;20059;-71
2021/09/21 03:48:15;;;;;;;12.75;9.88;;;11.70;12.10;;;;;;5042630;28;20048;-71
2021/09/21 03:50:43;;;;;;;12.88;9.98;;;11.60;12.50;;;;;;5040347;28;20068;-73
2021/09/21 03:53:11;;;;;;;12.63;9.30;;;11.60;13.20;;;;;;5063632;28;20160;-71
2021/09/21 03:55:39;;;;;;;10.80;9.50;;;11.70;13.40;;;;;;5055458;28;20047;-71
2021/09/21 03:58:07;;;;;;;9.93;8.93;;;11.70;13.20;;;;;;5060587;28;20089;-71
2021/09/21 04:00:35;;;;;;;13.05;9.25;;;11.60;13.60;;;;;;5056916;28;20051;-71
2021/09/21 04:03:04;;;;;;;12.55;9.70;;;11.50;13.70;;;;;;5057931;28;20055;-71
2021/09/21 04:05:32;;;;;;;11.23;9.23;;;11.50;13.80;;;;;;5056350;28;20411;-71
2021/09/21 04:08:00;;;;;;;11.75;9.55;;;11.60;14.00;;;;;;5062123;28;20041;-71
2021/09/21 04:10:29;;;;;;;11.25;9.50;;;11.50;14.00;;;;;;5052086;28;20051;-71
2021/09/21 04:12:57;;;;;;;10.98;9.52;;;11.60;13.60;;;;;;5064470;28;20040;-71
2021/09/21 04:15:25;;;;;;;12.43;9.95;;;11.50;13.90;;;;;;5059015;28;20036;-71
2021/09/21 04:17:53;;;;;;;11.80;9.70;;;11.40;14.10;;;;;;5057130;28;20054;-72
2021/09/21 04:20:23;;;;;;;12.82;9.52;;;11.40;14.20;;;;;;5058467;28;20076;-69
2021/09/21 04:22:52;;;;;;;12.32;9.32;;;11.40;14.50;;;;;;5057986;28;20048;-71
2021/09/21 04:25:20;;;;;;;13.10;9.88;;;11.40;14.60;;;;;;5058531;28;20110;-71
2021/09/21 04:27:48;;;;;;;11.98;9.63;;;11.40;14.60;;;;;;5063104;28;20041;-70
2021/09/21 04:30:20;;;;;;;13.43;9.77;;;11.40;14.40;;;;;;5050282;28;20056;-70
2021/09/21 04:32:48;;;;;;;12.48;9.73;;;11.40;14.90;;;;;;5058096;28;20040;-70
2021/09/21 04:35:16;;;;;;;11.63;10.05;;;11.30;14.80;;;;;;5064825;28;20041;-71
2021/09/21 04:37:46;;;;;;;11.85;9.65;;;11.30;15.10;;;;;;5062692;28;20543;-71
2021/09/21 04:40:15;;;;;;;11.73;8.90;;;11.30;15.90;;;;;;5057600;28;20098;-71
2021/09/21 04:42:43;;;;;;;11.90;10.35;;;11.40;16.00;;;;;;5065936;28;20424;-71
2021/09/21 04:45:12;;;;;;;13.07;10.23;;;11.40;16.00;;;;;;5059866;28;20040;-72
2021/09/21 04:47:40;;;;;;;12.43;9.88;;;11.40;16.00;;;;;;5048498;28;20523;-71
2021/09/21 04:50:09;;;;;;;14.85;10.52;;;11.40;15.30;;;;;;5062043;28;20496;-71
2021/09/21 04:52:37;;;;;;;13.35;9.85;;;11.40;15.50;;;;;;5045692;28;20075;-70
2021/09/21 04:55:08;;;;;;;14.07;9.82;;;11.40;15.90;;;;;;5061671;28;20159;-71
2021/09/21 04:57:37;;;;;;;11.82;9.60;;;11.30;16.00;;;;;;5064909;28;20058;-71
2021/09/21 05:00:06;;;;;;;11.63;9.93;;;11.40;16.00;;;;;;5058019;28;20101;-71
2021/09/21 05:02:34;;;;;;;11.25;9.93;;;11.40;16.00;;;;;;5064109;28;20048;-71
2021/09/21 05:05:03;;;;;;;12.77;10.10;;;11.40;16.10;;;;;;5061107;28;20063;-71
2021/09/21 05:07:31;;;;;;;12.80;9.73;;;11.40;16.00;;;;;;5058372;28;20090;-71
2021/09/21 05:09:59;;;;;;;11.93;10.50;;;11.50;16.60;;;;;;5062976;28;20053;-71
2021/09/21 05:12:28;;;;;;;12.70;10.35;;;11.50;16.10;;;;;;5063963;28;20507;-71
2021/09/21 05:14:56;;;;;;;13.02;10.30;;;11.50;16.40;;;;;;5040830;28;20587;-72
2021/09/21 05:17:24;;;;;;;13.15;10.20;;;11.60;16.10;;;;;;5065854;28;20053;-71
2021/09/21 05:19:52;;;;;;;13.38;10.50;;;11.60;16.10;;;;;;5058948;28;20056;-71
2021/09/21 05:22:20;;;;;;;11.80;9.95;;;11.50;15.40;;;;;;5061602;28;20098;-71
2021/09/21 05:24:54;;;;;;;11.88;9.95;;;11.50;16.10;;;;;;5066617;28;21575;-70
2021/09/21 05:27:22;;;;;;;16.63;10.48;;;11.50;16.10;;;;;;5039540;28;20063;-71
2021/09/21 05:29:51;;;;;;;14.98;10.23;;;11.50;15.60;;;;;;5062701;28;20044;-70
2021/09/21 05:32:19;;;;;;;15.32;10.10;;;11.50;16.60;;;;;;5064276;28;20145;-71
2021/09/21 05:34:47;;;;;;;13.82;10.38;;;11.70;15.70;;;;;;5042649;28;20434;-70
2021/09/21 05:37:15;;;;;;;11.07;9.43;;;11.60;14.90;;;;;;5064067;28;20044;-72
2021/09/21 05:39:43;;;;;;;12.48;10.38;;;11.70;15.50;;;;;;5060769;28;20063;-71
2021/09/21 05:42:11;;;;;;;13.13;10.48;;;11.60;14.60;;;;;;5060565;28;20045;-71
2021/09/21 05:44:39;;;;;;;14.10;10.77;;;11.60;15.40;;;;;;5062747;28;20053;-72
2021/09/21 05:47:09;;;;;;;13.55;10.13;;;11.70;14.40;;;;;;5065984;28;20060;-71
2021/09/21 05:49:37;;;;;;;11.55;10.15;;;11.70;15.00;;;;;;5058176;28;20051;-71
2021/09/21 05:52:07;;;;;;;13.50;10.48;;;11.80;14.50;;;;;;5065064;28;20190;-71
2021/09/21 05:54:35;;;;;;;13.65;10.65;;;11.90;13.60;;;;;;5063686;28;20557;-71
2021/09/21 05:57:03;;;;;;;11.23;9.27;;;11.80;13.30;;;;;;5060393;28;20041;-71
2021/09/21 05:59:31;;;;;;;12.52;9.48;;;11.90;11.70;;;;;;5062774;28;20566;-71
2021/09/21 06:01:59;;;;;;;13.32;9.18;;;11.80;11.40;;;;;;5060023;28;20053;-71
2021/09/21 06:04:33;;;;;;;10.43;8.70;;;11.70;10.30;;;;;;5059384;28;20338;-71
2021/09/21 06:07:02;;;;;;;12.02;9.20;;;11.70;11.40;;;;;;5061852;28;20045;-71
2021/09/21 06:09:30;;;;;;;11.27;9.05;;;11.80;10.80;;;;;;5039349;28;20076;-71
2021/09/21 06:11:58;;;;;;;14.02;9.38;;;11.70;10.50;;;;;;5058291;28;20058;-71
2021/09/21 06:14:26;;;;;;;14.68;9.75;;;11.70;11.40;;;;;;5066034;28;20432;-71
2021/09/21 06:16:55;;;;;;;12.52;9.48;;;11.80;12.10;;;;;;5062379;28;20492;-71
2021/09/21 06:19:23;;;;;;;13.75;9.82;;;11.90;10.80;;;;;;5059694;28;20033;-71
2021/09/21 06:21:53;;;;;;;14.40;9.73;;;12.00;9.10;;;;;;5064529;28;20059;-72
2021/09/21 06:24:22;;;;;;;13.55;9.48;;;12.00;9.70;;;;;;5059136;28;20041;-70
2021/09/21 06:26:50;;;;;;;12.63;9.45;;;12.00;9.20;;;;;;5061601;28;20055;-71
2021/09/21 06:29:18;;;;;;;11.95;8.95;;;12.10;9.10;;;;;;5052878;28;20060;-71
2021/09/21 06:31:46;;;;;;;16.52;9.20;;;12.00;8.00;;;;;;5057758;28;20098;-71
2021/09/21 06:34:14;;;;;;;12.70;10.05;;;12.10;8.70;;;;;;5064298;28;20488;-72
2021/09/21 06:36:42;;;;;;;13.95;8.98;;;12.20;8.30;;;;;;5060841;28;20098;-71
2021/09/21 06:39:11;;;;;;;11.68;9.65;;;12.20;7.80;;;;;;5057963;28;20044;-71
2021/09/21 06:41:39;;;;;;;18.17;10.70;;;12.10;8.30;;;;;;5063186;28;20036;-71
2021/09/21 06:44:07;;;;;;;16.42;9.65;;;12.10;9.20;;;;;;5061163;28;20048;-71
2021/09/21 06:46:35;;;;;;;10.57;8.82;;;12.30;8.70;;;;;;5058742;28;20064;-72
2021/09/21 06:49:03;;;;;;;15.63;9.13;;;12.30;6.90;;;;;;5060453;28;20082;-71
2021/09/21 06:51:32;;;;;;;12.52;8.95;;;12.20;8.20;;;;;;5058348;28;20091;-71
2021/09/21 06:53:59;;;;;;;12.30;9.82;;;12.20;8.30;;;;;;5064560;28;20044;-71
2021/09/21 06:56:29;;;;;;;12.63;9.43;;;12.40;7.40;;;;;;5057814;28;20057;-71
2021/09/21 06:58:57;;;;;;;15.00;9.57;;;12.50;6.30;;;;;;5053918;28;20883;-72
2021/09/21 07:01:28;;;;;;;10.85;8.73;;;12.50;6.30;;;;;;5054006;28;20056;-70
2021/09/21 07:03:56;;;;;;;9.98;8.82;;;12.60;4.90;;;;;;5060435;28;20105;-71
2021/09/21 07:06:25;;;;;;;12.23;9.73;;;12.50;5.80;;;;;;5060391;28;20043;-71
2021/09/21 07:08:53;;;;;;;11.23;9.02;;;12.40;4.70;;;;;;5059322;28;20839;-70
2021/09/21 07:11:21;;;;;;;11.32;9.05;;;12.80;5.20;;;;;;5057183;28;20048;-71
2021/09/21 07:13:51;;;;;;;11.77;8.80;;;13.10;3.20;;;;;;5063659;28;20492;-71
2021/09/21 07:16:20;;;;;;;10.55;8.50;;;13.00;3.30;;;;;;5059903;28;20110;-71
2021/09/21 07:18:48;;;;;;;12.75;8.05;;;13.10;3.30;;;;;;5054834;28;20508;-71
2021/09/21 07:21:16;;;;;;;13.52;8.60;;;13.10;1.40;;;;;;5063074;28;20792;-71
2021/09/21 07:23:52;;;;;;;12.07;8.85;;;13.40;1.00;;;;;;5059737;28;20032;-71
2021/09/21 07:26:20;;;;;;;10.30;8.32;;;13.70;1.00;;;;;;5059056;28;20052;-71
2021/09/21 07:28:48;;;;;;;11.40;9.00;;;13.80;1.00;;;;;;5062587;28;20037;-71
2021/09/21 07:31:17;;;;;;;12.25;8.75;;;13.60;1.00;;;;;;5042762;28;20076;-71
2021/09/21 07:33:47;;;;;;;12.07;9.88;;;13.80;1.00;;;;;;5059897;28;20053;-71
2021/09/21 07:36:16;;;;;;;10.68;8.43;;;13.90;1.00;;;;;;5061726;28;20324;-71
2021/09/21 07:38:44;;;;;;;10.13;7.57;;;14.10;1.00;;;;;;5053573;28;20064;-71
2021/09/21 07:41:12;;;;;;;9.52;7.55;;;14.20;1.00;;;;;;5060562;28;20514;-71
2021/09/21 07:43:40;;;;;;;12.43;8.00;;;14.60;1.00;;;;;;5062052;28;20045;-71
2021/09/21 07:46:08;;;;;;;10.43;8.50;;;14.50;1.00;;;;;;5058636;28;20457;-71
2021/09/21 07:48:37;;;;;;;9.30;7.22;;;14.60;1.00;;;;;;5061634;28;20070;-71
2021/09/21 07:51:05;;;;;;;10.65;7.55;;;14.40;1.00;;;;;;5057373;28;20059;-71
2021/09/21 07:53:33;;;;;;;8.60;7.70;;;14.60;1.00;;;;;;5059197;28;20043;-71
2021/09/21 07:56:02;;;;;;;11.07;7.50;;;14.50;1.00;;;;;;5060027;28;20546;-71
2021/09/21 07:58:47;;;;;;;7.95;7.15;;;14.50;1.00;;;;;;5057416;28;20047;-72
2021/09/21 08:01:15;;;;;;;7.85;7.05;;;14.40;1.00;;;;;;5059953;28;20059;-72
2021/09/21 08:03:46;;;;;;;11.68;7.82;;;14.30;1.00;;;;;;5064734;28;20579;-72
2021/09/21 08:06:15;;;;;;;11.57;8.18;;;14.20;1.00;;;;;;5058628;28;20131;-72
2021/09/21 08:08:43;;;;;;;9.13;7.93;;;14.10;1.00;;;;;;5060519;28;20838;-71
2021/09/21 08:11:11;;;;;;;12.90;8.23;;;14.30;1.00;;;;;;5066808;28;20052;-72
2021/09/21 08:13:40;;;;;;;7.90;7.10;;;14.40;1.00;;;;;;5063080;28;20040;-71
2021/09/21 08:16:08;;;;;;;8.55;7.00;;;14.40;1.00;;;;;;5067929;28;20424;-71
2021/09/21 08:18:37;;;;;;;8.85;7.35;;;14.40;1.00;;;;;;5059643;28;20082;-71
2021/09/21 08:21:06;;;;;;;7.80;6.97;;;14.40;1.00;;;;;;5061172;28;20111;-71
2021/09/21 08:23:34;;;;;;;9.60;7.70;;;14.60;1.00;;;;;;5065257;28;20052;-71
2021/09/21 08:26:02;;;;;;;9.15;7.60;;;14.60;1.00;;;;;;5063079;28;20090;-71
2021/09/21 08:28:33;;;;;;;9.00;6.95;;;14.80;1.00;;;;;;5059824;28;20165;-71
2021/09/21 08:31:01;;;;;;;8.50;7.30;;;14.50;1.00;;;;;;5065899;28;20078;-71
2021/09/21 08:33:29;;;;;;;8.20;7.18;;;14.60;1.00;;;;;;5063578;28;20050;-72
2021/09/21 08:35:57;;;;;;;9.05;7.18;;;14.50;1.00;;;;;;5063203;28;20500;-71
2021/09/21 08:38:26;;;;;;;9.48;7.07;;;14.80;1.00;;;;;;5065403;28;20045;-72
2021/09/21 08:40:54;;;;;;;8.73;6.85;;;14.60;1.00;;;;;;5061492;28;20090;-72
2021/09/21 08:43:23;;;;;;;8.25;6.38;;;14.80;1.00;;;;;;5063363;28;20048;-72
2021/09/21 08:45:51;;;;;;;10.90;6.45;;;15.00;1.00;;;;;;5065921;28;20078;-71
2021/09/21 08:48:19;;;;;;;7.53;6.13;;;15.00;1.00;;;;;;5061427;28;20052;-72
2021/09/21 08:50:47;;;;;;;7.50;6.60;;;15.20;1.00;;;;;;5062269;28;20570;-71
2021/09/21 08:53:15;;;;;;;8.60;7.00;;;15.00;1.00;;;;;;5067664;28;20056;-72
2021/09/21 08:55:44;;;;;;;7.13;5.95;;;15.10;1.00;;;;;;5062633;28;20133;-72
2021/09/21 08:58:13;;;;;;;6.82;5.80;;;15.00;1.00;;;;;;5060443;28;20071;-72
2021/09/21 09:00:41;;;;;;;6.68;5.90;;;14.60;1.00;;;;;;5062218;28;20463;-71
2021/09/21 09:03:11;;;;;;;7.32;5.55;;;14.70;1.00;;;;;;5062669;28;20052;-71
2021/09/21 09:05:47;;;;;;;7.95;5.88;;;15.00;1.00;;;;;;5063251;28;20508;-71
2021/09/21 09:08:30;;;;;;;6.13;5.45;;;15.20;1.00;;;;;;5044686;28;20139;-71
2021/09/21 09:11:15;;;;;;;6.63;5.55;;;15.30;1.00;;;;;;5057361;28;20560;-71
2021/09/21 09:13:45;;;;;;;7.97;6.22;;;15.30;1.00;;;;;;5058838;28;20125;-71
2021/09/21 09:16:15;;;;;;;7.20;5.88;;;15.20;1.00;;;;;;5062910;28;20044;-72
2021/09/21 09:18:46;;;;;;;9.10;6.72;;;15.40;1.00;;;;;;5045305;28;20052;-71
2021/09/21 09:21:15;;;;;;;8.10;6.05;;;15.30;1.00;;;;;;5058086;28;20045;-71
2021/09/21 09:23:47;;;;;;;7.35;6.13;;;15.10;1.00;;;;;;5063956;28;20052;-71
2021/09/21 09:26:19;;;;;;;6.75;5.72;;;15.30;1.00;;;;;;5063973;28;20045;-72
2021/09/21 09:28:48;;;;;;;7.95;6.30;;;15.30;1.00;;;;;;5059461;28;20051;-70
2021/09/21 09:31:28;;;;;;;7.25;5.95;;;15.50;1.00;;;;;;5059637;28;20121;-71
2021/09/21 09:34:10;;;;;;;7.57;5.72;;;15.30;1.00;;;;;;5067688;28;20624;-71
2021/09/21 09:36:46;;;;;;;8.10;5.68;;;15.40;1.00;;;;;;5059017;28;20050;-72
2021/09/21 09:39:15;;;;;;;7.63;6.25;;;15.60;1.00;;;;;;5058752;28;20124;-72
2021/09/21 09:41:46;;;;;;;7.07;6.28;;;15.50;1.00;;;;;;5066177;28;20071;-72
2021/09/21 09:44:16;;;;;;;7.80;6.72;;;15.50;1.00;;;;;;5060002;28;20538;-72
2021/09/21 09:46:46;;;;;;;6.75;6.00;;;15.50;1.00;;;;;;5060781;28;20060;-71
2021/09/21 09:49:14;;;;;;;6.63;5.93;;;15.40;1.00;;;;;;5059797;28;20759;-72
2021/09/21 09:51:46;;;;;;;6.78;6.07;;;15.60;1.00;;;;;;5059864;28;20562;-71
2021/09/21 09:54:14;;;;;;;7.10;6.20;;;15.50;1.00;;;;;;5064855;28;20121;-71
2021/09/21 09:56:45;;;;;;;8.70;6.32;;;15.80;1.00;;;;;;5061949;28;20478;-70
2021/09/21 09:59:15;;;;;;;6.63;5.55;;;15.70;1.00;;;;;;5058946;28;20396;-71
2021/09/21 10:01:44;;;;;;;8.30;6.30;;;15.80;1.00;;;;;;5064123;28;20059;-72
2021/09/21 10:04:14;;;;;;;7.35;6.28;;;16.00;1.00;;;;;;5061198;28;20086;-71
2021/09/21 10:06:43;;;;;;;8.02;6.65;;;15.50;1.00;;;;;;5061509;28;20044;-71
2021/09/21 10:09:16;;;;;;;8.02;6.13;;;15.40;1.00;;;;;;5061438;28;21318;-71
2021/09/21 10:11:47;;;;;;;7.50;6.07;;;15.30;1.00;;;;;;5058460;28;20500;-72
2021/09/21 10:14:19;;;;;;;8.65;6.50;;;15.70;1.00;;;;;;5043704;28;20044;-72
2021/09/21 10:16:54;;;;;;;9.52;7.30;;;15.80;1.00;;;;;;5043953;28;20048;-72
2021/09/21 10:19:27;;;;;;;7.95;7.10;;;15.40;1.00;;;;;;5057861;28;20037;-71
2021/09/21 10:21:56;;;;;;;8.93;7.07;;;15.90;1.00;;;;;;5059200;28;20407;-71
2021/09/21 10:24:37;;;;;;;7.70;6.88;;;15.80;1.00;;;;;;5064028;28;20538;-72
2021/09/21 10:27:08;;;;;;;7.75;6.20;;;15.80;1.00;;;;;;5041314;28;20063;-71
2021/09/21 10:29:37;;;;;;;7.10;6.40;;;16.10;1.00;;;;;;5060976;28;20051;-72
2021/09/21 10:32:11;;;;;;;8.48;6.30;;;16.30;1.00;;;;;;5060829;28;20044;-71
2021/09/21 10:34:41;;;;;;;10.30;7.05;;;16.20;1.00;;;;;;5060766;28;20102;-72
2021/09/21 10:37:10;;;;;;;8.20;5.78;;;16.00;1.00;;;;;;5063264;28;20270;-71
2021/09/21 10:39:39;;;;;;;7.40;6.57;;;16.20;1.00;;;;;;5060262;28;20078;-73
2021/09/21 10:42:09;;;;;;;7.03;6.28;;;16.50;1.00;;;;;;5044452;28;20472;-71
2021/09/21 10:44:49;;;;;;;7.13;6.30;;;16.20;1.00;;;;;;5063499;28;20056;-70
2021/09/21 10:47:21;;;;;;;9.70;6.70;;;15.70;1.00;;;;;;5062160;28;20049;-70
2021/09/21 10:49:55;;;;;;;7.85;6.82;;;15.80;1.00;;;;;;5058621;28;20058;-71
2021/09/21 10:52:27;;;;;;;8.95;6.90;;;16.40;1.00;;;;;;5063535;28;20102;-71
2021/09/21 10:54:57;;;;;;;10.73;7.03;;;16.70;1.00;;;;;;5056687;28;20044;-71
2021/09/21 10:57:32;;;;;;;8.50;6.45;;;16.50;1.00;;;;;;5055039;28;20041;-71
2021/09/21 11:00:04;;;;;;;8.55;6.63;;;16.60;1.00;;;;;;5058935;28;20424;-72
2021/09/21 11:02:36;;;;;;;10.43;6.82;;;16.60;1.00;;;;;;5060011;28;20044;-71
2021/09/21 11:05:07;;;;;;;7.63;6.57;;;16.30;1.00;;;;;;5059684;28;20071;-71
2021/09/21 11:07:37;;;;;;;10.02;6.43;;;16.20;1.00;;;;;;5060393;28;20082;-71
2021/09/21 11:10:07;;;;;;;8.98;6.63;;;16.50;1.00;;;;;;5058544;28;20413;-71
2021/09/21 11:12:36;;;;;;;8.65;7.03;;;16.70;1.00;;;;;;5059928;28;20083;-71
2021/09/21 11:15:08;;;;;;;7.43;6.43;;;16.60;1.00;;;;;;5058867;28;20056;-72
2021/09/21 11:17:37;;;;;;;7.90;6.53;;;16.50;1.00;;;;;;5059858;28;20040;-72
2021/09/21 11:20:06;;;;;;;7.00;6.10;;;16.20;1.00;;;;;;5056941;28;20502;-70
2021/09/21 11:22:36;;;;;;;9.45;6.78;;;16.20;1.00;;;;;;5063904;28;20044;-71
2021/09/21 11:25:07;;;;;;;9.70;6.50;;;16.10;1.00;;;;;;5058333;28;20040;-71
2021/09/21 11:27:40;;;;;;;9.52;6.75;;;16.00;1.00;;;;;;5042926;28;20037;-71
2021/09/21 11:30:13;;;;;;;9.52;7.00;;;15.90;1.00;;;;;;5042563;28;20040;-71
2021/09/21 11:32:42;;;;;;;8.20;6.68;;;15.70;1.00;;;;;;5034957;28;20586;-71
2021/09/21 11:35:12;;;;;;;9.82;7.20;;;16.10;1.00;;;;;;5037768;28;20045;-71
2021/09/21 11:37:46;;;;;;;8.18;7.15;;;15.90;1.00;;;;;;5038116;28;20429;-70
2021/09/21 11:40:24;;;;;;;8.18;6.82;;;16.10;1.00;;;;;;5032503;28;20068;-70
2021/09/21 11:42:53;;;;;;;7.78;6.07;;;16.30;1.00;;;;;;5043475;28;20052;-70
2021/09/21 11:45:22;;;;;;;8.23;6.57;;;16.20;1.00;;;;;;5053581;28;20037;-70
2021/09/21 11:47:50;;;;;;;9.75;6.63;;;16.10;1.00;;;;;;5049662;28;20106;-71
2021/09/21 11:50:21;;;;;;;8.80;6.68;;;16.10;1.00;;;;;;5052284;28;20053;-70
2021/09/21 11:52:51;;;;;;;10.77;6.75;;;15.50;1.00;;;;;;5039575;28;20097;-71
2021/09/21 11:55:21;;;;;;;8.90;6.30;;;15.50;1.00;;;;;;5061843;28;20110;-71
2021/09/21 11:57:51;;;;;;;8.40;6.97;;;15.40;1.00;;;;;;5062135;28;20405;-72
2021/09/21 12:00:23;;;;;;;11.25;6.97;;;15.80;1.00;;;;;;5055612;28;22008;-70
2021/09/21 12:02:55;;;;;;;7.70;6.90;;;16.10;1.00;;;;;;5042050;28;20060;-71
2021/09/21 12:05:24;;;;;;;9.25;7.95;;;16.00;1.00;;;;;;5061835;28;20048;-71
2021/09/21 12:07:53;;;;;;;8.38;6.93;;;15.90;1.00;;;;;;5055284;28;20036;-71
2021/09/21 12:10:26;;;;;;;7.20;6.43;;;16.10;1.00;;;;;;5060676;28;20048;-72
2021/09/21 12:13:05;;;;;;;8.35;6.18;;;16.40;1.00;;;;;;5060541;28;20495;-71
2021/09/21 12:15:36;;;;;;;10.70;5.90;;;16.60;1.00;;;;;;5054238;28;20056;-72
2021/09/21 12:18:08;;;;;;;8.43;6.80;;;16.30;1.00;;;;;;5058813;28;20068;-70
2021/09/21 12:20:36;;;;;;;7.72;6.07;;;15.80;1.00;;;;;;5054148;28;20040;-70
2021/09/21 12:23:06;;;;;;;7.10;6.30;;;16.10;1.00;;;;;;5056496;28;20492;-70
2021/09/21 12:25:36;;;;;;;7.85;6.38;;;16.10;1.00;;;;;;5064882;28;20110;-71
2021/09/21 12:28:06;;;;;;;7.45;6.32;;;16.60;1.00;;;;;;5056480;28;20389;-70
2021/09/21 12:30:38;;;;;;;7.47;6.43;;;16.40;1.00;;;;;;5054446;28;20165;-70
2021/09/21 12:33:09;;;;;;;7.22;6.43;;;16.70;1.00;;;;;;5063214;28;20067;-70
2021/09/21 12:35:43;;;;;;;11.48;6.13;;;16.30;1.00;;;;;;5057935;28;20559;-70
2021/09/21 12:38:14;;;;;;;7.32;6.50;;;16.50;1.00;;;;;;5053815;28;20496;-70
2021/09/21 12:40:54;;;;;;;8.75;6.85;;;16.40;1.00;;;;;;5057362;28;20056;-69
2021/09/21 12:43:25;;;;;;;7.78;6.20;;;16.50;1.00;;;;;;5060560;28;20131;-70
2021/09/21 12:45:57;;;;;;;7.60;6.20;;;16.60;1.00;;;;;;5058871;28;20063;-70
2021/09/21 12:48:27;;;;;;;7.28;6.13;;;17.00;1.00;;;;;;5060389;28;20044;-71
2021/09/21 12:50:56;;;;;;;6.35;5.70;;;17.30;1.00;;;;;;5055111;28;20439;-71
2021/09/21 12:53:25;;;;;;;7.43;6.28;;;17.50;1.00;;;;;;5062067;28;20079;-71
2021/09/21 12:55:55;;;;;;;7.70;6.07;;;17.40;1.00;;;;;;5065952;28;20546;-70
2021/09/21 12:58:26;;;;;;;8.82;5.75;;;17.40;1.00;;;;;;5044357;28;20040;-71
2021/09/21 13:00:55;;;;;;;7.85;6.63;;;17.30;1.00;;;;;;5060095;28;20166;-71
2021/09/21 13:03:23;;;;;;;7.57;6.60;;;17.20;1.00;;;;;;5066618;28;20478;-71